createdAt,value
2023-04-05T00:00:12.640Z,0.90
2023-04-05T00:01:12.941Z,1.10
2023-04-05T00:02:13.299Z,0.80
2023-04-05T00:03:13.619Z,0.70
2023-04-05T00:04:13.849Z,0.60
2023-04-05T00:05:14.065Z,0.70
2023-04-05T00:06:14.363Z,0.70
2023-04-05T00:07:14.678Z,0.90
2023-04-05T00:08:14.973Z,0.70
2023-04-05T00:09:15.298Z,0.70
2023-04-05T00:10:15.640Z,0.70
2023-04-05T00:11:15.965Z,0.50
2023-04-05T00:12:16.276Z,0.70
2023-04-05T00:13:16.604Z,0.50
2023-04-05T00:14:16.883Z,0.50
2023-04-05T00:15:17.178Z,0.50
2023-04-05T00:16:17.533Z,0.60
2023-04-05T00:17:17.820Z,0.50
2023-04-05T00:18:18.152Z,0.40
2023-04-05T00:19:18.498Z,0.60
2023-04-05T00:20:18.820Z,0.70
2023-04-05T00:21:19.139Z,0.60
2023-04-05T00:22:19.451Z,0.50
2023-04-05T00:23:19.785Z,0.50
2023-04-05T00:24:20.088Z,0.60
2023-04-05T00:25:20.436Z,0.80
2023-04-05T00:26:20.723Z,0.60
2023-04-05T00:27:21.047Z,0.70
2023-04-05T00:28:21.376Z,0.70
2023-04-05T00:29:21.698Z,0.90
2023-04-05T00:30:21.993Z,0.90
2023-04-05T00:31:22.383Z,0.70
2023-04-05T00:32:22.602Z,0.70
2023-04-05T00:33:22.943Z,0.40
2023-04-05T00:34:23.247Z,0.50
2023-04-05T00:35:23.548Z,0.80
2023-04-05T00:36:23.867Z,0.80
2023-04-05T00:37:24.223Z,1.00
2023-04-05T00:38:24.408Z,0.50
2023-04-05T00:39:24.730Z,0.90
2023-04-05T00:40:25.010Z,0.80
2023-04-05T00:41:25.337Z,1.00
2023-04-05T00:42:25.642Z,0.70
2023-04-05T00:43:26.000Z,0.80
2023-04-05T00:44:26.206Z,0.60
2023-04-05T00:45:26.499Z,0.70
2023-04-05T00:46:26.909Z,0.70
2023-04-05T00:47:27.112Z,1.10
2023-04-05T00:48:27.338Z,0.70
2023-04-05T00:49:27.669Z,1.20
2023-04-05T00:50:27.980Z,0.60
2023-04-05T00:51:28.304Z,0.80
2023-04-05T00:52:28.626Z,0.90
2023-04-05T00:53:28.922Z,0.80
2023-04-05T00:54:29.244Z,0.70
2023-04-05T00:55:29.584Z,0.60
2023-04-05T00:56:29.907Z,0.70
2023-04-05T00:57:30.214Z,1.10
2023-04-05T00:58:30.483Z,0.60
2023-04-05T00:59:30.860Z,0.90
2023-04-05T01:00:31.066Z,1.10
2023-04-05T01:01:31.415Z,1.10
2023-04-05T01:02:31.799Z,0.90
2023-04-05T01:03:31.988Z,0.80
2023-04-05T01:04:32.315Z,1.50
2023-04-05T01:05:32.622Z,0.60
2023-04-05T01:06:32.922Z,0.90
2023-04-05T01:07:33.263Z,0.80
2023-04-05T01:08:33.577Z,1.20
2023-04-05T01:09:33.934Z,0.80
2023-04-05T01:10:34.210Z,0.80
2023-04-05T01:11:34.535Z,0.90
2023-04-05T01:12:34.872Z,0.80
2023-04-05T01:13:35.162Z,1.00
2023-04-05T01:14:36.434Z,0.80
2023-04-05T01:15:35.865Z,0.90
2023-04-05T01:16:36.236Z,1.00
2023-04-05T01:17:36.488Z,1.00
2023-04-05T01:18:36.668Z,0.70
2023-04-05T01:19:36.985Z,0.90
2023-04-05T01:20:37.318Z,0.90
2023-04-05T01:21:37.629Z,1.10
2023-04-05T01:22:38.005Z,1.00
2023-04-05T01:23:38.207Z,0.90
2023-04-05T01:24:38.514Z,1.00
2023-04-05T01:25:38.870Z,1.10
2023-04-05T01:26:39.038Z,0.90
2023-04-05T01:27:39.365Z,1.00
2023-04-05T01:28:39.670Z,1.00
2023-04-05T01:29:40.017Z,1.00
2023-04-05T01:30:40.445Z,0.80
2023-04-05T01:31:40.681Z,1.00
2023-04-05T01:32:40.981Z,0.80
2023-04-05T01:33:41.267Z,0.80
2023-04-05T01:34:41.614Z,1.00
2023-04-05T01:35:41.963Z,0.80
2023-04-05T01:36:42.240Z,1.10
2023-04-05T01:37:42.586Z,1.00
2023-04-05T01:38:42.922Z,1.00
2023-04-05T01:39:43.238Z,1.30
2023-04-05T01:40:43.725Z,0.90
2023-04-05T01:41:43.869Z,0.90
2023-04-05T01:42:44.233Z,1.20
2023-04-05T01:43:44.558Z,1.10
2023-04-05T01:44:44.916Z,1.30
2023-04-05T01:45:45.213Z,0.80
2023-04-05T01:46:45.555Z,1.00
2023-04-05T01:47:45.909Z,1.00
2023-04-05T01:48:46.085Z,1.10
2023-04-05T01:49:46.402Z,0.90
2023-04-05T01:50:46.742Z,0.90
2023-04-05T01:51:47.034Z,1.10
2023-04-05T01:52:47.336Z,0.80
2023-04-05T01:53:47.671Z,1.30
2023-04-05T01:54:47.959Z,1.30
2023-04-05T01:55:48.253Z,1.20
2023-04-05T01:56:48.610Z,1.10
2023-04-05T01:57:58.033Z,1.30
2023-04-05T01:58:49.160Z,1.20
2023-04-05T01:59:56.959Z,1.30
2023-04-05T02:00:49.814Z,1.80
2023-04-05T02:01:50.085Z,1.30
2023-04-05T02:02:50.560Z,1.10
2023-04-05T02:03:50.783Z,1.10
2023-04-05T02:04:50.974Z,0.90
2023-04-05T02:05:51.279Z,1.20
2023-04-05T02:06:51.615Z,1.10
2023-04-05T02:07:51.933Z,1.20
2023-04-05T02:08:52.241Z,1.30
2023-04-05T02:09:52.526Z,1.10
2023-04-05T02:10:52.851Z,1.10
2023-04-05T02:11:53.169Z,1.00
2023-04-05T02:12:53.480Z,1.00
2023-04-05T02:13:53.790Z,1.00
2023-04-05T02:14:54.084Z,1.00
2023-04-05T02:15:54.435Z,1.40
2023-04-05T02:16:54.709Z,1.00
2023-04-05T02:17:55.084Z,1.10
2023-04-05T02:18:55.261Z,1.20
2023-04-05T02:19:55.584Z,1.20
2023-04-05T02:20:55.909Z,1.20
2023-04-05T02:21:56.211Z,1.50
2023-04-05T02:22:56.513Z,1.20
2023-04-05T02:23:56.844Z,1.40
2023-04-05T02:24:57.139Z,1.70
2023-04-05T02:25:57.464Z,1.40
2023-04-05T02:26:57.695Z,1.50
2023-04-05T02:27:58.018Z,1.30
2023-04-05T02:28:58.319Z,1.40
2023-04-05T02:29:58.649Z,1.50
2023-04-05T02:30:58.935Z,1.30
2023-04-05T02:31:59.277Z,1.10
2023-04-05T02:32:59.670Z,1.40
2023-04-05T02:33:59.900Z,1.30
2023-04-05T02:35:00.122Z,1.20
2023-04-05T02:36:00.499Z,1.00
2023-04-05T02:37:00.719Z,1.40
2023-04-05T02:38:01.043Z,1.30
2023-04-05T02:39:01.350Z,1.20
2023-04-05T02:40:01.690Z,1.00
2023-04-05T02:41:02.013Z,1.30
2023-04-05T02:42:02.315Z,1.30
2023-04-05T02:43:02.713Z,1.40
2023-04-05T02:44:02.922Z,1.30
2023-04-05T02:45:03.243Z,1.30
2023-04-05T02:46:03.568Z,1.20
2023-04-05T02:47:03.868Z,1.30
2023-04-05T02:48:04.285Z,1.70
2023-04-05T02:49:04.439Z,1.20
2023-04-05T02:50:04.808Z,1.40
2023-04-05T02:51:05.091Z,1.30
2023-04-05T02:52:05.373Z,1.40
2023-04-05T02:53:05.745Z,1.30
2023-04-05T02:54:05.953Z,1.70
2023-04-05T02:55:06.264Z,2.00
2023-04-05T02:56:06.652Z,1.30
2023-04-05T02:57:06.956Z,1.30
2023-04-05T02:58:07.185Z,1.40
2023-04-05T02:59:07.607Z,1.40
2023-04-05T03:00:07.763Z,1.40
2023-04-05T03:01:07.991Z,1.60
2023-04-05T03:02:08.195Z,1.40
2023-04-05T03:03:08.593Z,1.70
2023-04-05T03:04:08.685Z,1.60
2023-04-05T03:05:09.086Z,1.70
2023-04-05T03:06:09.299Z,1.30
2023-04-05T03:07:09.666Z,1.50
2023-04-05T03:08:09.922Z,1.30
2023-04-05T03:09:10.212Z,1.70
2023-04-05T03:10:10.452Z,1.70
2023-04-05T03:11:10.664Z,1.10
2023-04-05T03:12:11.024Z,1.50
2023-04-05T03:13:11.284Z,1.60
2023-04-05T03:14:11.505Z,1.80
2023-04-05T03:15:11.713Z,1.40
2023-04-05T03:16:12.022Z,1.70
2023-04-05T03:17:12.368Z,1.40
2023-04-05T03:18:12.772Z,1.70
2023-04-05T03:19:12.994Z,1.60
2023-04-05T03:20:13.281Z,1.50
2023-04-05T03:21:13.599Z,1.60
2023-04-05T03:22:13.899Z,1.50
2023-04-05T03:23:14.219Z,1.50
2023-04-05T03:24:14.512Z,1.50
2023-04-05T03:25:14.868Z,1.60
2023-04-05T03:26:15.147Z,1.40
2023-04-05T03:27:15.437Z,1.70
2023-04-05T03:28:15.759Z,2.10
2023-04-05T03:29:16.056Z,1.90
2023-04-05T03:30:16.376Z,1.80
2023-04-05T03:31:18.295Z,1.90
2023-04-05T03:32:16.977Z,1.50
2023-04-05T03:33:17.340Z,1.70
2023-04-05T03:34:17.513Z,1.60
2023-04-05T03:35:17.874Z,2.00
2023-04-05T03:36:18.154Z,2.00
2023-04-05T03:37:18.492Z,1.70
2023-04-05T03:38:18.801Z,2.10
2023-04-05T03:39:19.124Z,1.50
2023-04-05T03:40:19.431Z,2.20
2023-04-05T03:41:19.746Z,2.10
2023-04-05T03:42:20.097Z,1.90
2023-04-05T03:43:20.411Z,1.90
2023-04-05T03:44:20.730Z,2.00
2023-04-05T03:45:24.062Z,2.10
2023-04-05T03:46:21.421Z,2.30
2023-04-05T03:47:21.627Z,2.20
2023-04-05T03:48:21.961Z,2.20
2023-04-05T03:49:22.171Z,2.10
2023-04-05T03:50:22.478Z,2.60
2023-04-05T03:51:22.780Z,2.20
2023-04-05T03:52:23.154Z,2.10
2023-04-05T03:53:23.377Z,1.90
2023-04-05T03:54:23.724Z,2.30
2023-04-05T03:55:23.923Z,2.30
2023-04-05T03:56:24.280Z,2.10
2023-04-05T03:57:24.465Z,2.00
2023-04-05T03:58:24.803Z,2.50
2023-04-05T03:59:25.161Z,2.40
2023-04-05T04:00:25.478Z,2.20
2023-04-05T04:01:25.669Z,2.30
2023-04-05T04:02:26.080Z,2.20
2023-04-05T04:03:26.286Z,2.00
2023-04-05T04:04:26.613Z,2.00
2023-04-05T04:05:26.985Z,2.30
2023-04-05T04:06:27.339Z,2.80
2023-04-05T04:07:27.500Z,2.10
2023-04-05T04:08:27.943Z,2.40
2023-04-05T04:09:28.076Z,2.40
2023-04-05T04:10:28.397Z,2.70
2023-04-05T04:11:28.752Z,2.10
2023-04-05T04:12:28.964Z,1.90
2023-04-05T04:13:29.366Z,2.30
2023-04-05T04:14:29.512Z,2.40
2023-04-05T04:15:29.807Z,2.20
2023-04-05T04:16:30.132Z,2.70
2023-04-05T04:17:30.438Z,2.60
2023-04-05T04:18:30.736Z,2.30
2023-04-05T04:19:31.048Z,2.10
2023-04-05T04:20:31.356Z,2.50
2023-04-05T04:21:31.679Z,2.60
2023-04-05T04:22:31.999Z,2.60
2023-04-05T04:23:32.309Z,2.40
2023-04-05T04:24:32.689Z,2.20
2023-04-05T04:25:32.962Z,2.40
2023-04-05T04:26:33.284Z,2.40
2023-04-05T04:27:33.591Z,2.40
2023-04-05T04:28:33.928Z,2.30
2023-04-05T04:29:34.245Z,2.40
2023-04-05T04:30:34.550Z,2.80
2023-04-05T04:31:34.936Z,2.30
2023-04-05T04:32:35.130Z,2.50
2023-04-05T04:33:35.402Z,2.60
2023-04-05T04:34:35.648Z,2.50
2023-04-05T04:35:35.880Z,2.80
2023-04-05T04:36:36.105Z,3.00
2023-04-05T04:37:36.441Z,2.60
2023-04-05T04:38:36.668Z,2.90
2023-04-05T04:39:37.932Z,2.50
2023-04-05T04:40:37.213Z,2.90
2023-04-05T04:41:37.553Z,2.30
2023-04-05T04:42:37.762Z,2.50
2023-04-05T04:43:38.008Z,2.70
2023-04-05T04:44:38.343Z,2.80
2023-04-05T04:45:38.776Z,2.50
2023-04-05T04:46:38.978Z,2.90
2023-04-05T04:47:39.367Z,3.00
2023-04-05T04:48:39.547Z,2.70
2023-04-05T04:49:39.890Z,3.00
2023-04-05T04:50:40.219Z,3.40
2023-04-05T04:51:40.550Z,3.30
2023-04-05T04:52:40.888Z,2.90
2023-04-05T04:53:41.231Z,3.00
2023-04-05T04:54:41.451Z,3.10
2023-04-05T04:55:41.977Z,2.90
2023-04-05T04:56:42.072Z,3.20
2023-04-05T04:57:42.288Z,2.40
2023-04-05T04:58:42.647Z,3.20
2023-04-05T04:59:42.863Z,3.20
2023-04-05T05:00:43.379Z,3.40
2023-04-05T05:01:43.442Z,2.90
2023-04-05T05:02:43.749Z,3.30
2023-04-05T05:03:44.114Z,3.20
2023-04-05T05:04:44.319Z,3.40
2023-04-05T05:05:44.596Z,3.00
2023-04-05T05:06:44.780Z,3.00
2023-04-05T05:07:45.155Z,3.40
2023-04-05T05:08:45.470Z,3.40
2023-04-05T05:09:45.698Z,3.40
2023-04-05T05:10:46.015Z,3.30
2023-04-05T05:11:46.353Z,3.40
2023-04-05T05:12:46.600Z,3.80
2023-04-05T05:13:50.528Z,3.30
2023-04-05T05:14:48.163Z,3.70
2023-04-05T05:15:47.437Z,3.40
2023-04-05T05:16:47.666Z,3.40
2023-04-05T05:17:48.012Z,3.50
2023-04-05T05:18:48.326Z,3.80
2023-04-05T05:19:48.518Z,3.60
2023-04-05T05:20:48.863Z,3.60
2023-04-05T05:21:49.089Z,3.60
2023-04-05T05:22:49.452Z,3.70
2023-04-05T05:23:49.749Z,4.70
2023-04-05T05:24:50.009Z,4.90
2023-04-05T05:25:50.318Z,5.20
2023-04-05T05:26:50.642Z,5.10
2023-04-05T05:27:51.122Z,4.90
2023-04-05T05:28:51.177Z,5.80
2023-04-05T05:29:51.416Z,6.00
2023-04-05T05:30:51.708Z,5.10
2023-04-05T05:31:51.913Z,5.50
2023-04-05T05:32:52.156Z,5.30
2023-04-05T05:33:52.410Z,5.60
2023-04-05T05:34:52.610Z,5.20
2023-04-05T05:35:52.974Z,5.20
2023-04-05T05:36:53.271Z,4.60
2023-04-05T05:37:55.064Z,4.00
2023-04-05T05:38:53.901Z,4.20
2023-04-05T05:39:54.141Z,3.80
2023-04-05T05:40:54.367Z,3.80
2023-04-05T05:41:54.600Z,3.60
2023-04-05T05:42:54.983Z,3.70
2023-04-05T05:43:55.225Z,3.40
2023-04-05T05:44:55.454Z,3.60
2023-04-05T05:45:55.853Z,3.00
2023-04-05T05:46:56.063Z,2.50
2023-04-05T05:47:56.558Z,2.20
2023-04-05T05:48:56.701Z,2.50
2023-04-05T05:49:56.942Z,2.70
2023-04-05T05:50:57.190Z,2.50
2023-04-05T05:51:57.456Z,2.40
2023-04-05T05:52:59.121Z,1.40
2023-04-05T05:53:57.974Z,1.60
2023-04-05T05:54:58.192Z,1.50
2023-04-05T05:55:58.510Z,1.30
2023-04-05T05:56:58.774Z,1.30
2023-04-05T05:57:58.944Z,0.80
2023-04-05T05:58:59.497Z,0.70
2023-04-05T05:59:59.600Z,0.50
2023-04-05T06:00:59.889Z,0.60
2023-04-05T06:02:00.122Z,0.70
2023-04-05T06:03:00.382Z,0.80
2023-04-05T06:04:00.697Z,0.60
2023-04-05T06:05:01.036Z,0.60
2023-04-05T06:06:01.226Z,0.60
2023-04-05T06:07:01.445Z,0.60
2023-04-05T06:08:01.744Z,0.90
2023-04-05T06:09:01.971Z,0.60
2023-04-05T06:10:02.252Z,0.60
2023-04-05T06:11:02.488Z,0.60
2023-04-05T06:12:02.781Z,0.70
2023-04-05T06:13:03.012Z,0.70
2023-04-05T06:14:03.267Z,0.70
2023-04-05T06:15:03.575Z,0.60
2023-04-05T06:16:03.914Z,0.50
2023-04-05T06:17:04.130Z,0.70
2023-04-05T06:18:04.420Z,0.70
2023-04-05T06:19:04.706Z,0.90
2023-04-05T06:20:04.991Z,0.60
2023-04-05T06:21:05.285Z,0.60
2023-04-05T06:22:06.262Z,0.70
2023-04-05T06:23:05.860Z,0.60
2023-04-05T06:24:06.104Z,0.70
2023-04-05T06:25:06.351Z,0.90
2023-04-05T06:26:06.919Z,0.40
2023-04-05T06:27:06.855Z,0.80
2023-04-05T06:28:07.099Z,0.80
2023-04-05T06:29:07.410Z,1.20
2023-04-05T06:30:07.657Z,0.90
2023-04-05T06:31:09.465Z,0.80
2023-04-05T06:32:08.427Z,0.80
2023-04-05T06:33:08.473Z,0.80
2023-04-05T06:34:09.656Z,0.70
2023-04-05T06:35:09.034Z,0.80
2023-04-05T06:36:09.323Z,0.60
2023-04-05T06:37:09.601Z,0.70
2023-04-05T06:38:09.766Z,0.40
2023-04-05T06:39:10.027Z,0.60
2023-04-05T06:40:10.268Z,0.60
2023-04-05T06:41:10.558Z,0.50
2023-04-05T06:42:10.798Z,0.30
2023-04-05T06:43:11.080Z,0.40
2023-04-05T06:44:11.322Z,0.40
2023-04-05T06:45:11.587Z,0.40
2023-04-05T06:46:11.933Z,0.50
2023-04-05T06:47:12.172Z,0.40
2023-04-05T06:48:12.427Z,0.50
2023-04-05T06:49:12.681Z,0.50
2023-04-05T06:50:12.968Z,0.40
2023-04-05T06:51:13.247Z,0.70
2023-04-05T06:52:13.487Z,0.50
2023-04-05T06:53:13.732Z,0.20
2023-04-05T06:54:13.996Z,0.40
2023-04-05T06:55:14.254Z,0.60
2023-04-05T06:56:14.521Z,0.40
2023-04-05T06:57:14.760Z,0.40
2023-04-05T06:58:15.055Z,0.30
2023-04-05T06:59:15.388Z,0.30
2023-04-05T07:00:15.639Z,0.50
2023-04-05T07:01:15.958Z,0.60
2023-04-05T07:02:16.161Z,0.30
2023-04-05T07:03:16.608Z,0.40
2023-04-05T07:04:16.706Z,0.30
2023-04-05T07:05:17.003Z,0.40
2023-04-05T07:06:17.260Z,0.50
2023-04-05T07:07:17.561Z,0.30
2023-04-05T07:08:18.580Z,0.20
2023-04-05T07:09:18.127Z,0.30
2023-04-05T07:10:18.778Z,0.30
2023-04-05T07:11:18.643Z,0.40
2023-04-05T07:12:18.999Z,0.60
2023-04-05T07:13:19.213Z,0.50
2023-04-05T07:14:19.604Z,0.40
2023-04-05T07:15:19.823Z,0.30
2023-04-05T07:16:20.233Z,0.50
2023-04-05T07:17:20.487Z,0.40
2023-04-05T07:18:20.748Z,0.30
2023-04-05T07:19:20.975Z,0.50
2023-04-05T07:20:21.365Z,0.40
2023-04-05T07:21:21.828Z,0.20
2023-04-05T07:22:21.963Z,0.60
2023-04-05T07:23:23.139Z,0.40
2023-04-05T07:24:22.464Z,0.40
2023-04-05T07:25:22.744Z,0.40
2023-04-05T07:26:22.966Z,0.40
2023-04-05T07:27:23.211Z,0.60
2023-04-05T07:28:23.483Z,0.60
2023-04-05T07:29:23.733Z,0.50
2023-04-05T07:30:24.086Z,0.30
2023-04-05T07:31:24.337Z,0.40
2023-04-05T07:32:24.838Z,0.40
2023-04-05T07:33:25.032Z,0.50
2023-04-05T07:34:25.135Z,0.40
2023-04-05T07:35:25.488Z,0.40
2023-04-05T07:36:25.839Z,0.20
2023-04-05T07:37:26.158Z,0.50
2023-04-05T07:38:26.389Z,0.50
2023-04-05T07:39:26.721Z,0.30
2023-04-05T07:40:26.956Z,0.40
2023-04-05T07:41:27.252Z,0.30
2023-04-05T07:42:27.492Z,0.40
2023-04-05T07:43:27.781Z,0.60
2023-04-05T07:44:28.046Z,0.60
2023-04-05T07:45:28.301Z,0.70
2023-04-05T07:46:28.624Z,0.70
2023-04-05T07:47:28.903Z,0.50
2023-04-05T07:48:29.113Z,0.50
2023-04-05T07:49:29.375Z,0.50
2023-04-05T07:50:29.610Z,0.70
2023-04-05T07:51:29.884Z,0.60
2023-04-05T07:52:30.158Z,0.50
2023-04-05T07:53:30.440Z,0.50
2023-04-05T07:54:30.641Z,0.40
2023-04-05T07:55:31.028Z,0.50
2023-04-05T07:56:31.272Z,0.60
2023-04-05T07:57:31.671Z,0.60
2023-04-05T07:58:31.789Z,0.50
2023-04-05T08:00:35.694Z,0.60
2023-04-05T08:01:35.768Z,0.60
2023-04-05T08:02:36.118Z,0.50
2023-04-05T08:03:36.309Z,0.40
2023-04-05T08:04:36.529Z,0.30
2023-04-05T08:05:36.817Z,0.70
2023-04-05T08:06:37.240Z,0.50
2023-04-05T08:07:37.271Z,0.70
2023-04-05T08:08:37.877Z,0.30
2023-04-05T08:09:37.775Z,0.50
2023-04-05T08:10:38.073Z,0.60
2023-04-05T08:11:38.315Z,0.60
2023-04-05T08:12:39.105Z,0.40
2023-04-05T08:13:38.800Z,0.60
2023-04-05T08:14:39.050Z,0.60
2023-04-05T08:15:39.296Z,0.30
2023-04-05T08:16:39.586Z,0.90
2023-04-05T08:17:39.743Z,2.00
2023-04-05T08:18:40.072Z,1.60
2023-04-05T08:19:40.330Z,1.40
2023-04-05T08:20:40.850Z,0.50
2023-04-05T08:21:40.820Z,0.60
2023-04-05T08:22:41.149Z,0.80
2023-04-05T08:23:41.495Z,0.70
2023-04-05T08:24:41.765Z,0.50
2023-04-05T08:25:42.716Z,0.70
2023-04-05T08:26:42.312Z,0.50
2023-04-05T08:27:42.548Z,0.40
2023-04-05T08:28:42.752Z,0.40
2023-04-05T08:29:43.108Z,0.70
2023-04-05T08:30:43.576Z,0.50
2023-04-05T08:31:43.586Z,0.60
2023-04-05T08:32:44.014Z,0.50
2023-04-05T08:33:44.206Z,0.70
2023-04-05T08:34:44.425Z,0.40
2023-04-05T08:35:44.802Z,0.60
2023-04-05T08:36:45.791Z,0.70
2023-04-05T08:37:45.310Z,0.40
2023-04-05T08:38:45.648Z,0.30
2023-04-05T08:39:45.895Z,0.50
2023-04-05T08:40:46.216Z,0.50
2023-04-05T08:41:46.429Z,0.40
2023-04-05T08:42:46.672Z,0.30
2023-04-05T08:43:46.981Z,0.30
2023-04-05T08:44:47.243Z,0.30
2023-04-05T08:45:47.507Z,0.50
2023-04-05T08:46:47.716Z,0.50
2023-04-05T08:47:48.034Z,0.30
2023-04-05T08:48:48.217Z,0.50
2023-04-05T08:49:48.488Z,0.40
2023-04-05T08:50:48.746Z,0.30
2023-04-05T08:51:48.954Z,0.30
2023-04-05T08:52:49.181Z,0.40
2023-04-05T08:53:49.546Z,0.50
2023-04-05T08:54:50.931Z,0.60
2023-04-05T08:55:50.102Z,0.30
2023-04-05T08:56:50.343Z,0.50
2023-04-05T08:57:50.628Z,0.30
2023-04-05T08:58:50.866Z,0.50
2023-04-05T08:59:51.064Z,0.30
2023-04-05T09:00:51.450Z,0.40
2023-04-05T09:01:51.676Z,0.30
2023-04-05T09:02:52.057Z,0.30
2023-04-05T09:03:52.210Z,0.20
2023-04-05T09:04:52.404Z,0.40
2023-04-05T09:05:52.760Z,0.40
2023-04-05T09:06:52.989Z,0.30
2023-04-05T09:07:53.349Z,0.40
2023-04-05T09:08:53.555Z,0.30
2023-04-05T09:09:53.943Z,0.80
2023-04-05T09:10:54.227Z,0.30
2023-04-05T09:11:54.453Z,0.20
2023-04-05T09:12:55.447Z,0.30
2023-04-05T09:13:54.994Z,0.30
2023-04-05T09:14:55.269Z,0.50
2023-04-05T09:15:55.507Z,0.30
2023-04-05T09:16:55.784Z,0.40
2023-04-05T09:17:56.056Z,0.30
2023-04-05T09:18:56.231Z,0.40
2023-04-05T09:19:56.612Z,0.40
2023-04-05T09:20:56.831Z,0.30
2023-04-05T09:21:57.212Z,0.50
2023-04-05T09:22:57.436Z,0.30
2023-04-05T09:23:57.746Z,0.40
2023-04-05T09:24:57.995Z,0.30
2023-04-05T09:25:58.280Z,0.40
2023-04-05T09:26:58.537Z,0.40
2023-04-05T09:27:58.817Z,0.20
2023-04-05T09:28:59.136Z,0.60
2023-04-05T09:29:59.450Z,0.30
2023-04-05T09:30:59.732Z,0.30
2023-04-05T09:32:00.041Z,0.40
2023-04-05T09:33:00.395Z,0.50
2023-04-05T09:34:00.581Z,0.70
2023-04-05T09:35:00.946Z,0.40
2023-04-05T09:36:01.169Z,0.40
2023-04-05T09:37:01.543Z,0.30
2023-04-05T09:38:01.702Z,0.30
2023-04-05T09:39:02.060Z,0.50
2023-04-05T09:40:02.431Z,0.50
2023-04-05T09:41:02.725Z,0.40
2023-04-05T09:42:03.065Z,0.40
2023-04-05T09:43:03.435Z,0.40
2023-04-05T09:44:03.661Z,0.60
2023-04-05T09:45:04.002Z,0.20
2023-04-05T09:46:04.277Z,0.60
2023-04-05T09:47:04.492Z,2.00
2023-04-05T09:48:04.796Z,4.60
2023-04-05T09:49:05.095Z,5.00
2023-04-05T09:50:05.413Z,2.40
2023-04-05T09:51:12.520Z,1.80
2023-04-05T09:52:07.002Z,1.20
2023-04-05T09:53:06.336Z,0.60
2023-04-05T09:54:06.611Z,0.40
2023-04-05T09:55:06.894Z,0.50
2023-04-05T09:56:07.134Z,1.80
2023-04-05T09:57:07.392Z,0.90
2023-04-05T09:58:07.672Z,0.50
2023-04-05T09:59:08.043Z,0.50
2023-04-05T10:00:08.185Z,0.50
2023-04-05T10:02:09.794Z,0.40
2023-04-05T10:03:09.120Z,0.40
2023-04-05T10:04:09.581Z,0.30
2023-04-05T10:05:09.730Z,0.30
2023-04-05T10:06:10.011Z,0.40
2023-04-05T10:07:10.276Z,0.40
2023-04-05T10:08:10.470Z,0.60
2023-04-05T10:09:10.764Z,0.40
2023-04-05T10:10:10.980Z,0.30
2023-04-05T10:11:11.224Z,0.70
2023-04-05T10:12:11.483Z,0.90
2023-04-05T10:13:11.728Z,0.80
2023-04-05T10:14:11.956Z,0.50
2023-04-05T10:15:12.263Z,0.50
2023-04-05T10:16:12.535Z,0.40
2023-04-05T10:17:12.729Z,0.30
2023-04-05T10:18:13.102Z,0.40
2023-04-05T10:19:13.235Z,0.40
2023-04-05T10:20:13.585Z,0.50
2023-04-05T10:21:13.760Z,0.30
2023-04-05T10:22:14.095Z,0.30
2023-04-05T10:23:14.354Z,0.40
2023-04-05T10:24:14.563Z,1.70
2023-04-05T10:25:14.963Z,1.70
2023-04-05T10:26:15.230Z,11.20
2023-04-05T10:27:15.489Z,6.00
2023-04-05T10:28:15.838Z,2.40
2023-04-05T10:29:16.118Z,0.90
2023-04-05T10:30:16.410Z,1.00
2023-04-05T10:31:26.993Z,1.70
2023-04-05T10:32:18.081Z,1.30
2023-04-05T10:33:17.350Z,0.70
2023-04-05T10:34:17.610Z,0.60
2023-04-05T10:35:17.780Z,0.60
2023-04-05T10:36:18.163Z,0.50
2023-04-05T10:37:18.547Z,0.50
2023-04-05T10:38:19.552Z,0.40
2023-04-05T10:39:19.133Z,0.50
2023-04-05T10:40:19.354Z,0.40
2023-04-05T10:41:19.553Z,0.30
2023-04-05T10:42:19.978Z,0.30
2023-04-05T10:43:20.324Z,0.40
2023-04-05T10:44:26.468Z,0.30
2023-04-05T10:45:21.940Z,0.60
2023-04-05T10:46:21.133Z,0.40
2023-04-05T10:47:21.331Z,0.40
2023-04-05T10:48:21.701Z,0.30
2023-04-05T10:49:21.897Z,0.70
2023-04-05T10:50:22.173Z,0.80
2023-04-05T10:51:22.495Z,0.80
2023-04-05T10:52:22.744Z,0.50
2023-04-05T10:53:22.977Z,0.50
2023-04-05T10:54:23.220Z,2.70
2023-04-05T10:55:23.480Z,3.10
2023-04-05T10:56:23.724Z,3.70
2023-04-05T10:57:23.983Z,1.70
2023-04-05T10:58:24.222Z,0.90
2023-04-05T10:59:24.667Z,0.50
2023-04-05T11:00:24.913Z,4.70
2023-04-05T11:01:25.929Z,2.80
2023-04-05T11:02:25.479Z,3.20
2023-04-05T11:03:25.817Z,2.60
2023-04-05T11:04:26.006Z,2.40
2023-04-05T11:05:26.272Z,1.50
2023-04-05T11:06:26.515Z,2.00
2023-04-05T11:07:26.730Z,6.70
2023-04-05T11:08:27.079Z,8.40
2023-04-05T11:09:27.380Z,5.40
2023-04-05T11:10:27.640Z,2.40
2023-04-05T11:11:27.888Z,1.30
2023-04-05T11:12:28.145Z,0.90
2023-04-05T11:13:28.375Z,6.40
2023-04-05T11:14:28.633Z,2.80
2023-04-05T11:15:28.911Z,2.10
2023-04-05T11:16:29.138Z,1.00
2023-04-05T11:17:29.373Z,0.60
2023-04-05T11:18:29.604Z,0.60
2023-04-05T11:19:29.875Z,0.50
2023-04-05T11:20:30.118Z,0.30
2023-04-05T11:21:30.358Z,0.60
2023-04-05T11:22:30.616Z,0.70
2023-04-05T11:23:30.827Z,0.60
2023-04-05T11:24:32.647Z,0.40
2023-04-05T11:25:31.368Z,0.50
2023-04-05T11:26:31.761Z,0.40
2023-04-05T11:27:31.880Z,0.60
2023-04-05T11:28:32.235Z,0.70
2023-04-05T11:29:32.490Z,0.70
2023-04-05T11:30:32.752Z,0.50
2023-04-05T11:31:33.062Z,0.70
2023-04-05T11:32:33.361Z,0.50
2023-04-05T11:33:33.679Z,0.50
2023-04-05T11:34:33.967Z,0.50
2023-04-05T11:35:34.272Z,0.60
2023-04-05T11:36:34.444Z,0.50
2023-04-05T11:37:34.818Z,0.50
2023-04-05T11:38:35.053Z,0.30
2023-04-05T11:39:35.275Z,0.30
2023-04-05T11:40:35.625Z,0.60
2023-04-05T11:41:36.019Z,0.50
2023-04-05T11:42:36.263Z,0.60
2023-04-05T11:43:36.608Z,0.70
2023-04-05T11:44:36.834Z,0.70
2023-04-05T11:45:37.229Z,0.60
2023-04-05T11:46:37.486Z,1.00
2023-04-05T11:47:37.744Z,0.80
2023-04-05T11:48:37.994Z,0.70
2023-04-05T11:49:38.198Z,0.50
2023-04-05T11:50:38.703Z,0.60
2023-04-05T11:51:38.787Z,0.50
2023-04-05T11:52:39.062Z,0.50
2023-04-05T11:53:39.288Z,0.60
2023-04-05T11:54:39.545Z,0.50
2023-04-05T11:55:39.968Z,0.40
2023-04-05T11:56:40.110Z,0.40
2023-04-05T11:57:40.352Z,0.90
2023-04-05T11:58:40.616Z,0.70
2023-04-05T11:59:40.838Z,0.40
2023-04-05T12:00:41.262Z,0.50
2023-04-05T12:01:41.405Z,1.50
2023-04-05T12:02:41.672Z,1.80
2023-04-05T12:03:42.036Z,1.70
2023-04-05T12:04:42.240Z,1.50
2023-04-05T12:05:42.605Z,1.00
2023-04-05T12:06:42.784Z,1.50
2023-04-05T12:07:43.138Z,0.90
2023-04-05T12:08:43.417Z,0.70
2023-04-05T12:09:43.653Z,0.70
2023-04-05T12:10:43.868Z,0.60
2023-04-05T12:11:44.108Z,0.40
2023-04-05T12:12:44.339Z,0.70
2023-04-05T12:13:44.599Z,0.40
2023-04-05T12:14:44.842Z,0.50
2023-04-05T12:15:45.210Z,0.50
2023-04-05T12:16:45.575Z,0.40
2023-04-05T12:17:45.802Z,0.30
2023-04-05T12:18:46.052Z,0.40
2023-04-05T12:19:46.307Z,0.40
2023-04-05T12:20:46.529Z,0.40
2023-04-05T12:21:46.770Z,0.30
2023-04-05T12:22:47.116Z,0.70
2023-04-05T12:23:47.467Z,0.30
2023-04-05T12:24:47.813Z,0.30
2023-04-05T12:25:48.029Z,0.50
2023-04-05T12:26:48.392Z,0.50
2023-04-05T12:27:48.726Z,0.40
2023-04-05T12:28:49.086Z,0.40
2023-04-05T12:29:49.339Z,0.30
2023-04-05T12:30:49.718Z,0.40
2023-04-05T12:31:49.958Z,0.50
2023-04-05T12:32:50.163Z,0.50
2023-04-05T12:33:50.400Z,0.70
2023-04-05T12:34:50.628Z,0.70
2023-04-05T12:35:50.877Z,0.60
2023-04-05T12:36:51.179Z,0.40
2023-04-05T12:37:51.395Z,0.60
2023-04-05T12:38:51.634Z,0.30
2023-04-05T12:39:51.928Z,0.40
2023-04-05T12:40:52.169Z,0.40
2023-04-05T12:41:52.387Z,0.40
2023-04-05T12:42:52.784Z,0.40
2023-04-05T12:43:53.018Z,0.50
2023-04-05T12:44:53.397Z,0.40
2023-04-05T12:45:53.663Z,0.30
2023-04-05T12:46:53.883Z,0.50
2023-04-05T12:47:54.145Z,0.60
2023-04-05T12:48:54.378Z,0.40
2023-04-05T12:49:54.626Z,0.50
2023-04-05T12:50:54.890Z,0.50
2023-04-05T12:51:55.096Z,0.40
2023-04-05T12:52:55.396Z,0.40
2023-04-05T12:53:55.689Z,0.50
2023-04-05T12:54:55.984Z,0.40
2023-04-05T12:55:56.247Z,0.60
2023-04-05T12:56:56.473Z,0.40
2023-04-05T12:57:56.693Z,0.50
2023-04-05T12:58:57.018Z,0.40
2023-04-05T12:59:57.257Z,0.90
2023-04-05T13:00:57.530Z,2.80
2023-04-05T13:01:57.736Z,2.20
2023-04-05T13:02:58.034Z,1.40
2023-04-05T13:04:08.446Z,3.40
2023-04-05T13:04:59.727Z,1.70
2023-04-05T13:05:58.904Z,0.70
2023-04-05T13:06:59.147Z,0.80
2023-04-05T13:07:59.483Z,0.70
2023-04-05T13:08:59.813Z,1.20
2023-04-05T13:09:59.970Z,0.70
2023-04-05T13:11:00.234Z,0.60
2023-04-05T13:12:00.567Z,0.40
2023-04-05T13:13:00.811Z,0.80
2023-04-05T13:14:01.120Z,0.60
2023-04-05T13:15:01.417Z,0.50
2023-04-05T13:16:01.651Z,0.50
2023-04-05T13:17:02.668Z,0.70
2023-04-05T13:18:02.207Z,0.30
2023-04-05T13:19:02.511Z,0.60
2023-04-05T13:20:02.802Z,0.60
2023-04-05T13:21:03.161Z,0.60
2023-04-05T13:22:03.314Z,0.80
2023-04-05T13:23:03.614Z,0.50
2023-04-05T13:24:03.945Z,0.60